Detalii statie REFDANCOM [00001D06]

Toti senzorii

Date Temperatura solului [C]Precipitatii [mm]Voltaj baterie [mV]Leaf Wetness [Min]HC Air temperature [C]HC Relative humidity [%]Punctul de roua [C]
medieminmaxsumaultimatimpmedieminmaxmediemediemin
2018-08-12 11:00:00 0 7216 26.89 25.64 28.67 71.17 21 20.5
2018-08-12 12:00:00 0 7206 30.51 28.9 32.14 60.83 21.9 20.5
2018-08-12 13:00:00 0 7206 31.77 30.14 33.09 53.68 20.9 19.5
2018-08-12 14:00:00 0 7206 31.57 29.53 33.54 51.67 20.1 18.4
2018-08-12 15:00:00 0 7206 32.7 31.42 33.65 49.56 20.6 19.3
2018-08-12 16:00:00 0 7206 32.43 31.75 32.99 48.81 20 19.4
2018-08-12 17:00:00 0 7206 32.63 32.23 33.06 46.95 19.5 18.8
2018-08-12 18:00:00 0 7186 31.85 31.36 32.38 46.32 18.7 17.9
2018-08-12 19:00:00 0 6786 29.86 27.98 31.06 49.7 17.9 17.1
2018-08-12 20:00:00 0 6678 25.38 23.99 27.61 63.07 17.6 17
2018-08-12 21:00:00 0 6678 22.14 20.97 23.65 79.75 18.2 17.3
2018-08-12 22:00:00 0 6678 21 20.37 21.59 86.97 18.5 18
2018-08-12 23:00:00 0 6660 20.54 19.94 20.87 88.84 18.5 17.3
2018-08-13 00:00:00 0 6660 18.38 17.87 19.51 97.06 17.8 17.1
2018-08-13 01:00:00 0 6660 17.72 17.07 18.31 16.66 3 0
2018-08-13 02:00:00 0 6660 17.67 17.29 18.15 0 0 0
2018-08-13 03:00:00 0 6668 17.5 17.37 17.64 0 0 0
2018-08-13 04:00:00 0 6660 17.15 16.69 17.57 0 0 0
2018-08-13 05:00:00 0 6668 16.02 15.83 16.56 0 0 0
2018-08-13 06:00:00 0 6668 16.27 15.96 16.43 0 0 0
2018-08-13 07:00:00 0 6698 17.06 16.04 18.42 0 0 0
2018-08-13 08:00:00 0 6718 20.37 18.74 22.79 0 0 0
2018-08-13 09:00:00 0 6718 25.93 22.96 27.69 61.16 17.6 0
2018-08-13 10:00:00 0 6826 28.72 26.79 30.35 70.43 22.6 21.7
2018-08-13 11:00:00 0 7206 31.52 30.74 32.3 60.55 22.6 19.9
2018-08-13 12:00:00 0 7206 32.76 31.95 33.33 50.85 21 20.4
2018-08-13 13:00:00 0 7206 33.53 32.77 34.22 50.81 21.7 20.4
2018-08-13 14:00:00 0 7206 33.22 32.42 33.81 50.88 21.4 20.5
2018-08-13 15:00:00 0 7206 33.67 33.24 34.28 47.74 20.8 20
2018-08-13 16:00:00 0 7206 60 33.54 33.18 34.05 47.31 20.5 19.2
2018-08-13 17:00:00 0 7206 33.08 32.61 33.61 49.21 20.8 19.1
2018-08-13 18:00:00 0 7030 31.8 31 32.63 51.7 20.4 19.8
2018-08-13 19:00:00 0 6796 29.85 28.27 30.93 56.49 20 19.6
2018-08-13 20:00:00 0 6678 24.6 22.34 27.6 38.04 0
2018-08-13 21:00:00 0 6678 21.13 20.44 22.11 0 0 0
2018-08-13 22:00:00 0 6668 20.45 19.84 20.68 0 0 0
2018-08-13 23:00:00 0 6660 19.49 18.61 20.04 0 0 0
2018-08-14 00:00:00 0 6660 18.48 18.03 18.98 0 0 0
2018-08-14 01:00:00 0 6650 16.97 16.49 17.76 0 0 0
2018-08-14 02:00:00 0 6650 16.52 15.57 17.36 0 0 0
2018-08-14 03:00:00 0 6650 15.38 15.07 15.61 0 0 0
2018-08-14 04:00:00 0 6660 14.69 14.3 15.17 0 0 0
2018-08-14 05:00:00 0 6650 14.64 14.07 15.14 8.33 0
2018-08-14 06:00:00 0 6660 14.29 13.75 14.68 0 0 0
2018-08-14 07:00:00 0 6678 15.59 14.75 17.05 0 0 0
2018-08-14 08:00:00 0 6698 19.09 17.35 21.68 44.63 4.6 0
2018-08-14 09:00:00 0 6698 24.61 22.48 26.05 74.52 19.6 13.7
2018-08-14 10:00:00 0 6816 27.34 25.55 28.49 66.77 20.3 18.9